sensor_id;sensor_type;location;lat;lon;timestamp;temperature;humidity
44215;DHT22;29884;47.450;19.124;2023-03-14T00:01:39;8.80;82.10
44215;DHT22;29884;47.450;19.124;2023-03-14T00:04:05;8.70;82.20
44215;DHT22;29884;47.450;19.124;2023-03-14T00:06:31;8.70;82.40
44215;DHT22;29884;47.450;19.124;2023-03-14T00:08:57;8.60;82.60
44215;DHT22;29884;47.450;19.124;2023-03-14T00:11:23;8.60;82.90
44215;DHT22;29884;47.450;19.124;2023-03-14T00:13:49;8.50;83.10
44215;DHT22;29884;47.450;19.124;2023-03-14T00:16:16;8.60;82.80
44215;DHT22;29884;47.450;19.124;2023-03-14T00:18:41;8.60;82.80
44215;DHT22;29884;47.450;19.124;2023-03-14T00:21:09;8.60;83.10
44215;DHT22;29884;47.450;19.124;2023-03-14T00:23:37;8.60;82.90
44215;DHT22;29884;47.450;19.124;2023-03-14T00:26:06;8.80;82.10
44215;DHT22;29884;47.450;19.124;2023-03-14T00:28:32;8.80;82.00
44215;DHT22;29884;47.450;19.124;2023-03-14T00:30:58;8.80;81.80
44215;DHT22;29884;47.450;19.124;2023-03-14T00:33:23;8.80;81.80
44215;DHT22;29884;47.450;19.124;2023-03-14T00:35:57;8.80;82.00
44215;DHT22;29884;47.450;19.124;2023-03-14T00:38:23;8.70;82.10
44215;DHT22;29884;47.450;19.124;2023-03-14T00:40:50;8.80;82.00
44215;DHT22;29884;47.450;19.124;2023-03-14T00:43:17;8.80;82.10
44215;DHT22;29884;47.450;19.124;2023-03-14T00:45:43;8.80;82.20
44215;DHT22;29884;47.450;19.124;2023-03-14T00:48:08;8.80;82.20
44215;DHT22;29884;47.450;19.124;2023-03-14T00:50:34;8.80;82.60
44215;DHT22;29884;47.450;19.124;2023-03-14T00:53:00;8.80;82.70
44215;DHT22;29884;47.450;19.124;2023-03-14T00:55:26;8.80;82.60
44215;DHT22;29884;47.450;19.124;2023-03-14T00:57:51;8.80;82.60
44215;DHT22;29884;47.450;19.124;2023-03-14T01:00:17;8.80;82.60
44215;DHT22;29884;47.450;19.124;2023-03-14T01:02:43;8.70;83.10
44215;DHT22;29884;47.450;19.124;2023-03-14T01:05:09;8.70;83.20
44215;DHT22;29884;47.450;19.124;2023-03-14T01:07:36;8.70;83.20
44215;DHT22;29884;47.450;19.124;2023-03-14T01:10:03;8.70;83.40
44215;DHT22;29884;47.450;19.124;2023-03-14T01:12:29;8.80;83.10
44215;DHT22;29884;47.450;19.124;2023-03-14T01:14:55;8.80;83.70
44215;DHT22;29884;47.450;19.124;2023-03-14T01:17:21;8.70;83.50
44215;DHT22;29884;47.450;19.124;2023-03-14T01:19:47;8.70;83.60
44215;DHT22;29884;47.450;19.124;2023-03-14T01:22:13;8.70;83.70
44215;DHT22;29884;47.450;19.124;2023-03-14T01:24:39;8.70;83.90
44215;DHT22;29884;47.450;19.124;2023-03-14T01:27:05;8.60;84.10
44215;DHT22;29884;47.450;19.124;2023-03-14T01:29:31;8.60;84.00
44215;DHT22;29884;47.450;19.124;2023-03-14T01:31:57;8.60;84.40
44215;DHT22;29884;47.450;19.124;2023-03-14T01:34:22;8.50;84.70
44215;DHT22;29884;47.450;19.124;2023-03-14T01:36:48;8.50;84.80
44215;DHT22;29884;47.450;19.124;2023-03-14T01:39:14;8.50;85.10
44215;DHT22;29884;47.450;19.124;2023-03-14T01:41:40;8.40;85.30
44215;DHT22;29884;47.450;19.124;2023-03-14T01:44:10;8.40;85.50
44215;DHT22;29884;47.450;19.124;2023-03-14T01:51:40;8.20;86.50
44215;DHT22;29884;47.450;19.124;2023-03-14T01:57:08;8.10;86.90
44215;DHT22;29884;47.450;19.124;2023-03-14T01:59:36;8.10;87.20
44215;DHT22;29884;47.450;19.124;2023-03-14T02:02:04;8.00;87.80
44215;DHT22;29884;47.450;19.124;2023-03-14T02:04:34;8.00;87.70
44215;DHT22;29884;47.450;19.124;2023-03-14T02:07:11;7.90;88.20
44215;DHT22;29884;47.450;19.124;2023-03-14T02:09:39;7.90;88.50
44215;DHT22;29884;47.450;19.124;2023-03-14T02:12:07;7.90;88.90
44215;DHT22;29884;47.450;19.124;2023-03-14T02:14:34;7.90;89.20
44215;DHT22;29884;47.450;19.124;2023-03-14T02:17:02;7.90;89.40
44215;DHT22;29884;47.450;19.124;2023-03-14T02:22:05;7.90;90.00
44215;DHT22;29884;47.450;19.124;2023-03-14T02:24:34;7.90;90.10
44215;DHT22;29884;47.450;19.124;2023-03-14T02:29:33;7.90;90.20
44215;DHT22;29884;47.450;19.124;2023-03-14T02:32:02;7.90;90.40
44215;DHT22;29884;47.450;19.124;2023-03-14T02:34:27;7.90;90.60
44215;DHT22;29884;47.450;19.124;2023-03-14T02:36:54;7.80;90.60
44215;DHT22;29884;47.450;19.124;2023-03-14T02:39:24;7.90;90.70
44215;DHT22;29884;47.450;19.124;2023-03-14T02:41:53;7.90;90.80
44215;DHT22;29884;47.450;19.124;2023-03-14T02:44:18;7.80;91.20
44215;DHT22;29884;47.450;19.124;2023-03-14T02:46:44;7.90;90.90
44215;DHT22;29884;47.450;19.124;2023-03-14T02:49:14;7.90;90.90
44215;DHT22;29884;47.450;19.124;2023-03-14T02:51:41;7.80;91.10
44215;DHT22;29884;47.450;19.124;2023-03-14T02:54:08;7.80;91.20
44215;DHT22;29884;47.450;19.124;2023-03-14T02:56:34;7.80;91.20
44215;DHT22;29884;47.450;19.124;2023-03-14T02:59:03;7.80;91.20
44215;DHT22;29884;47.450;19.124;2023-03-14T03:01:29;7.80;91.20
44215;DHT22;29884;47.450;19.124;2023-03-14T03:03:54;7.80;91.50
44215;DHT22;29884;47.450;19.124;2023-03-14T03:06:20;7.80;91.40
44215;DHT22;29884;47.450;19.124;2023-03-14T03:08:46;7.80;91.50
44215;DHT22;29884;47.450;19.124;2023-03-14T03:11:12;7.80;91.60
44215;DHT22;29884;47.450;19.124;2023-03-14T03:13:37;7.80;91.60
44215;DHT22;29884;47.450;19.124;2023-03-14T03:16:03;7.80;91.80
44215;DHT22;29884;47.450;19.124;2023-03-14T03:18:29;7.80;91.90
44215;DHT22;29884;47.450;19.124;2023-03-14T03:20:55;7.90;91.80
44215;DHT22;29884;47.450;19.124;2023-03-14T03:23:21;8.00;91.80
44215;DHT22;29884;47.450;19.124;2023-03-14T03:25:50;7.90;92.10
44215;DHT22;29884;47.450;19.124;2023-03-14T03:28:17;7.90;92.00
44215;DHT22;29884;47.450;19.124;2023-03-14T03:30:43;8.00;92.10
44215;DHT22;29884;47.450;19.124;2023-03-14T03:33:09;8.00;92.20
44215;DHT22;29884;47.450;19.124;2023-03-14T03:38:10;8.00;92.50
44215;DHT22;29884;47.450;19.124;2023-03-14T03:40:37;8.00;92.40
44215;DHT22;29884;47.450;19.124;2023-03-14T03:43:02;8.10;92.30
44215;DHT22;29884;47.450;19.124;2023-03-14T03:45:29;8.10;92.20
44215;DHT22;29884;47.450;19.124;2023-03-14T03:47:55;8.10;92.10
44215;DHT22;29884;47.450;19.124;2023-03-14T03:50:21;8.20;92.00
44215;DHT22;29884;47.450;19.124;2023-03-14T03:52:47;8.30;91.80
44215;DHT22;29884;47.450;19.124;2023-03-14T03:55:13;8.30;91.80
44215;DHT22;29884;47.450;19.124;2023-03-14T03:57:38;8.30;91.70
44215;DHT22;29884;47.450;19.124;2023-03-14T04:00:05;8.40;91.60
44215;DHT22;29884;47.450;19.124;2023-03-14T04:02:31;8.40;91.60
44215;DHT22;29884;47.450;19.124;2023-03-14T04:04:56;8.40;91.60
44215;DHT22;29884;47.450;19.124;2023-03-14T04:07:22;8.40;91.50
44215;DHT22;29884;47.450;19.124;2023-03-14T04:09:48;8.40;91.50
44215;DHT22;29884;47.450;19.124;2023-03-14T04:12:14;8.30;91.60
44215;DHT22;29884;47.450;19.124;2023-03-14T04:14:39;8.30;91.80
44215;DHT22;29884;47.450;19.124;2023-03-14T04:17:07;8.30;91.80
44215;DHT22;29884;47.450;19.124;2023-03-14T04:19:33;8.30;91.60
44215;DHT22;29884;47.450;19.124;2023-03-14T04:21:58;8.30;91.60
44215;DHT22;29884;47.450;19.124;2023-03-14T04:24:24;8.40;91.60
44215;DHT22;29884;47.450;19.124;2023-03-14T04:26:50;8.30;91.60
44215;DHT22;29884;47.450;19.124;2023-03-14T04:29:16;8.30;91.70
44215;DHT22;29884;47.450;19.124;2023-03-14T04:31:42;8.20;91.80
44215;DHT22;29884;47.450;19.124;2023-03-14T04:34:07;8.10;91.90
44215;DHT22;29884;47.450;19.124;2023-03-14T04:36:33;8.00;92.20
44215;DHT22;29884;47.450;19.124;2023-03-14T04:38:59;7.90;92.50
44215;DHT22;29884;47.450;19.124;2023-03-14T04:41:26;7.90;92.50
44215;DHT22;29884;47.450;19.124;2023-03-14T04:43:52;7.90;92.50
44215;DHT22;29884;47.450;19.124;2023-03-14T04:46:17;7.90;92.60
44215;DHT22;29884;47.450;19.124;2023-03-14T04:48:43;7.90;92.70
44215;DHT22;29884;47.450;19.124;2023-03-14T04:51:09;7.80;92.80
44215;DHT22;29884;47.450;19.124;2023-03-14T04:53:35;7.80;93.00
44215;DHT22;29884;47.450;19.124;2023-03-14T04:56:02;7.80;93.00
44215;DHT22;29884;47.450;19.124;2023-03-14T04:58:28;7.70;93.10
44215;DHT22;29884;47.450;19.124;2023-03-14T05:00:54;7.70;93.10
44215;DHT22;29884;47.450;19.124;2023-03-14T05:03:19;7.80;93.10
44215;DHT22;29884;47.450;19.124;2023-03-14T05:05:45;7.70;93.10
44215;DHT22;29884;47.450;19.124;2023-03-14T05:08:12;7.70;93.20
44215;DHT22;29884;47.450;19.124;2023-03-14T05:10:38;7.60;93.40
44215;DHT22;29884;47.450;19.124;2023-03-14T05:13:04;7.70;93.30
44215;DHT22;29884;47.450;19.124;2023-03-14T05:15:29;7.70;93.20
44215;DHT22;29884;47.450;19.124;2023-03-14T05:17:55;7.80;93.20
44215;DHT22;29884;47.450;19.124;2023-03-14T05:20:21;7.90;93.00
44215;DHT22;29884;47.450;19.124;2023-03-14T05:22:47;8.00;92.90
44215;DHT22;29884;47.450;19.124;2023-03-14T05:25:13;8.10;92.60
44215;DHT22;29884;47.450;19.124;2023-03-14T05:27:39;8.10;92.50
44215;DHT22;29884;47.450;19.124;2023-03-14T05:30:06;8.20;92.30
44215;DHT22;29884;47.450;19.124;2023-03-14T05:32:32;8.20;92.20
44215;DHT22;29884;47.450;19.124;2023-03-14T05:34:58;8.30;92.00
44215;DHT22;29884;47.450;19.124;2023-03-14T05:37:27;8.40;91.70
44215;DHT22;29884;47.450;19.124;2023-03-14T05:39:53;8.50;91.50
44215;DHT22;29884;47.450;19.124;2023-03-14T05:42:19;8.60;91.40
44215;DHT22;29884;47.450;19.124;2023-03-14T05:44:45;8.60;91.40
44215;DHT22;29884;47.450;19.124;2023-03-14T05:47:11;8.70;91.30
44215;DHT22;29884;47.450;19.124;2023-03-14T05:49:37;8.90;91.00
44215;DHT22;29884;47.450;19.124;2023-03-14T05:52:03;9.00;90.60
44215;DHT22;29884;47.450;19.124;2023-03-14T05:54:30;9.10;90.30
44215;DHT22;29884;47.450;19.124;2023-03-14T05:56:55;9.30;90.00
44215;DHT22;29884;47.450;19.124;2023-03-14T05:59:21;9.40;90.00
44215;DHT22;29884;47.450;19.124;2023-03-14T06:01:47;9.60;89.20
44215;DHT22;29884;47.450;19.124;2023-03-14T06:04:12;9.80;88.40
44215;DHT22;29884;47.450;19.124;2023-03-14T06:06:38;10.10;87.10
44215;DHT22;29884;47.450;19.124;2023-03-14T06:09:05;10.40;86.00
44215;DHT22;29884;47.450;19.124;2023-03-14T06:11:31;10.50;85.20
44215;DHT22;29884;47.450;19.124;2023-03-14T06:13:57;10.70;84.90
44215;DHT22;29884;47.450;19.124;2023-03-14T06:16:22;10.80;84.00
44215;DHT22;29884;47.450;19.124;2023-03-14T06:18:48;11.00;83.50
44215;DHT22;29884;47.450;19.124;2023-03-14T06:21:15;11.10;83.10
44215;DHT22;29884;47.450;19.124;2023-03-14T06:23:40;11.10;82.70
44215;DHT22;29884;47.450;19.124;2023-03-14T06:26:06;11.20;82.40
44215;DHT22;29884;47.450;19.124;2023-03-14T06:28:32;11.30;81.70
44215;DHT22;29884;47.450;19.124;2023-03-14T06:30:59;11.40;81.90
44215;DHT22;29884;47.450;19.124;2023-03-14T06:33:25;11.50;81.10
44215;DHT22;29884;47.450;19.124;2023-03-14T06:35:51;11.30;81.60
44215;DHT22;29884;47.450;19.124;2023-03-14T06:38:17;11.30;82.40
44215;DHT22;29884;47.450;19.124;2023-03-14T06:40:43;11.30;81.80
44215;DHT22;29884;47.450;19.124;2023-03-14T06:43:09;11.20;83.20
44215;DHT22;29884;47.450;19.124;2023-03-14T06:45:34;11.10;82.50
44215;DHT22;29884;47.450;19.124;2023-03-14T06:48:00;11.20;82.60
44215;DHT22;29884;47.450;19.124;2023-03-14T06:50:26;11.20;82.40
44215;DHT22;29884;47.450;19.124;2023-03-14T06:52:52;11.10;82.60
44215;DHT22;29884;47.450;19.124;2023-03-14T06:55:17;11.20;83.30
44215;DHT22;29884;47.450;19.124;2023-03-14T06:57:43;11.20;83.00
44215;DHT22;29884;47.450;19.124;2023-03-14T07:00:11;11.20;82.80
44215;DHT22;29884;47.450;19.124;2023-03-14T07:02:37;11.20;83.30
44215;DHT22;29884;47.450;19.124;2023-03-14T07:05:04;11.30;83.40
44215;DHT22;29884;47.450;19.124;2023-03-14T07:07:30;11.30;83.80
44215;DHT22;29884;47.450;19.124;2023-03-14T07:09:56;11.40;83.60
44215;DHT22;29884;47.450;19.124;2023-03-14T07:12:22;11.40;83.60
44215;DHT22;29884;47.450;19.124;2023-03-14T07:14:48;11.50;84.00
44215;DHT22;29884;47.450;19.124;2023-03-14T07:17:13;11.70;83.60
44215;DHT22;29884;47.450;19.124;2023-03-14T07:19:39;11.90;83.40
44215;DHT22;29884;47.450;19.124;2023-03-14T07:22:05;12.00;82.80
44215;DHT22;29884;47.450;19.124;2023-03-14T07:24:31;12.10;82.30
44215;DHT22;29884;47.450;19.124;2023-03-14T07:26:57;12.20;83.30
44215;DHT22;29884;47.450;19.124;2023-03-14T07:29:22;12.30;82.70
44215;DHT22;29884;47.450;19.124;2023-03-14T07:31:48;12.40;82.10
44215;DHT22;29884;47.450;19.124;2023-03-14T07:34:14;12.40;81.90
44215;DHT22;29884;47.450;19.124;2023-03-14T07:36:40;12.60;81.90
44215;DHT22;29884;47.450;19.124;2023-03-14T07:39:05;12.70;81.90
44215;DHT22;29884;47.450;19.124;2023-03-14T07:41:32;12.80;81.30
44215;DHT22;29884;47.450;19.124;2023-03-14T07:43:58;12.90;80.80
44215;DHT22;29884;47.450;19.124;2023-03-14T07:46:24;13.10;81.40
44215;DHT22;29884;47.450;19.124;2023-03-14T07:48:49;13.30;80.70
44215;DHT22;29884;47.450;19.124;2023-03-14T07:51:15;13.30;80.60
44215;DHT22;29884;47.450;19.124;2023-03-14T07:53:41;13.40;80.70
44215;DHT22;29884;47.450;19.124;2023-03-14T07:56:08;13.40;80.60
44215;DHT22;29884;47.450;19.124;2023-03-14T07:58:34;13.50;80.10
44215;DHT22;29884;47.450;19.124;2023-03-14T08:01:00;13.60;80.10
44215;DHT22;29884;47.450;19.124;2023-03-14T08:03:26;13.60;80.00
44215;DHT22;29884;47.450;19.124;2023-03-14T08:05:51;13.60;80.10
44215;DHT22;29884;47.450;19.124;2023-03-14T08:08:18;13.80;80.80
44215;DHT22;29884;47.450;19.124;2023-03-14T08:10:45;14.00;79.80
44215;DHT22;29884;47.450;19.124;2023-03-14T08:13:12;14.10;79.70
44215;DHT22;29884;47.450;19.124;2023-03-14T08:15:38;14.20;78.80
44215;DHT22;29884;47.450;19.124;2023-03-14T08:18:04;14.30;79.00
44215;DHT22;29884;47.450;19.124;2023-03-14T08:20:30;14.50;79.00
44215;DHT22;29884;47.450;19.124;2023-03-14T08:22:57;14.60;78.30
44215;DHT22;29884;47.450;19.124;2023-03-14T08:25:24;14.80;77.70
44215;DHT22;29884;47.450;19.124;2023-03-14T08:27:50;14.80;77.00
44215;DHT22;29884;47.450;19.124;2023-03-14T08:30:17;15.00;77.70
44215;DHT22;29884;47.450;19.124;2023-03-14T08:32:43;15.10;76.80
44215;DHT22;29884;47.450;19.124;2023-03-14T08:35:09;15.30;77.70
44215;DHT22;29884;47.450;19.124;2023-03-14T08:37:35;15.70;76.50
44215;DHT22;29884;47.450;19.124;2023-03-14T08:40:03;15.80;75.20
44215;DHT22;29884;47.450;19.124;2023-03-14T08:42:38;16.00;74.40
44215;DHT22;29884;47.450;19.124;2023-03-14T08:45:05;16.20;74.00
44215;DHT22;29884;47.450;19.124;2023-03-14T08:47:31;16.40;72.90
44215;DHT22;29884;47.450;19.124;2023-03-14T08:49:56;16.50;71.70
44215;DHT22;29884;47.450;19.124;2023-03-14T08:52:22;16.40;71.30
44215;DHT22;29884;47.450;19.124;2023-03-14T08:54:48;16.60;72.60
44215;DHT22;29884;47.450;19.124;2023-03-14T08:57:14;16.70;70.70
44215;DHT22;29884;47.450;19.124;2023-03-14T08:59:40;16.70;69.80
44215;DHT22;29884;47.450;19.124;2023-03-14T09:02:05;16.60;70.00
44215;DHT22;29884;47.450;19.124;2023-03-14T09:04:32;16.60;70.00
44215;DHT22;29884;47.450;19.124;2023-03-14T09:06:59;16.60;70.20
44215;DHT22;29884;47.450;19.124;2023-03-14T09:09:25;16.70;69.90
44215;DHT22;29884;47.450;19.124;2023-03-14T09:11:56;16.80;70.50
44215;DHT22;29884;47.450;19.124;2023-03-14T09:14:21;16.90;69.30
44215;DHT22;29884;47.450;19.124;2023-03-14T09:16:48;16.90;69.00
44215;DHT22;29884;47.450;19.124;2023-03-14T09:19:13;16.80;69.00
44215;DHT22;29884;47.450;19.124;2023-03-14T09:21:39;16.90;69.40
44215;DHT22;29884;47.450;19.124;2023-03-14T09:24:05;17.10;69.90
44215;DHT22;29884;47.450;19.124;2023-03-14T09:26:31;17.30;69.10
44215;DHT22;29884;47.450;19.124;2023-03-14T09:28:57;17.20;69.60
44215;DHT22;29884;47.450;19.124;2023-03-14T09:31:23;17.20;69.20
44215;DHT22;29884;47.450;19.124;2023-03-14T09:33:48;17.30;68.90
44215;DHT22;29884;47.450;19.124;2023-03-14T09:36:14;17.40;69.60
44215;DHT22;29884;47.450;19.124;2023-03-14T09:38:40;17.50;68.50
44215;DHT22;29884;47.450;19.124;2023-03-14T09:41:36;17.40;68.80
44215;DHT22;29884;47.450;19.124;2023-03-14T09:44:08;17.30;69.70
44215;DHT22;29884;47.450;19.124;2023-03-14T09:46:36;17.40;69.80
44215;DHT22;29884;47.450;19.124;2023-03-14T09:49:10;17.70;68.70
44215;DHT22;29884;47.450;19.124;2023-03-14T09:51:36;18.00;69.30
44215;DHT22;29884;47.450;19.124;2023-03-14T09:54:04;18.20;67.70
44215;DHT22;29884;47.450;19.124;2023-03-14T09:56:32;18.10;67.00
44215;DHT22;29884;47.450;19.124;2023-03-14T09:59:00;18.00;67.30
44215;DHT22;29884;47.450;19.124;2023-03-14T10:01:30;18.10;67.70
44215;DHT22;29884;47.450;19.124;2023-03-14T10:04:00;18.40;67.70
44215;DHT22;29884;47.450;19.124;2023-03-14T10:06:29;18.40;67.50
44215;DHT22;29884;47.450;19.124;2023-03-14T10:08:55;18.40;67.20
44215;DHT22;29884;47.450;19.124;2023-03-14T10:11:22;18.40;67.40
44215;DHT22;29884;47.450;19.124;2023-03-14T10:14:09;18.40;67.20
44215;DHT22;29884;47.450;19.124;2023-03-14T10:16:44;18.40;67.30
44215;DHT22;29884;47.450;19.124;2023-03-14T10:19:15;18.40;67.60
44215;DHT22;29884;47.450;19.124;2023-03-14T10:21:52;18.60;66.50
44215;DHT22;29884;47.450;19.124;2023-03-14T10:26:48;19.00;65.40
44215;DHT22;29884;47.450;19.124;2023-03-14T10:29:15;19.00;65.70
44215;DHT22;29884;47.450;19.124;2023-03-14T10:31:57;19.40;65.60
44215;DHT22;29884;47.450;19.124;2023-03-14T10:34:35;19.60;64.70
44215;DHT22;29884;47.450;19.124;2023-03-14T10:37:21;19.50;64.30
44215;DHT22;29884;47.450;19.124;2023-03-14T10:39:49;19.30;64.20
44215;DHT22;29884;47.450;19.124;2023-03-14T10:42:21;19.30;64.00
44215;DHT22;29884;47.450;19.124;2023-03-14T10:45:00;19.40;64.80
44215;DHT22;29884;47.450;19.124;2023-03-14T10:47:28;19.40;63.80
44215;DHT22;29884;47.450;19.124;2023-03-14T10:49:54;19.30;63.30
44215;DHT22;29884;47.450;19.124;2023-03-14T10:52:28;19.20;63.00
44215;DHT22;29884;47.450;19.124;2023-03-14T10:55:13;19.20;64.20
44215;DHT22;29884;47.450;19.124;2023-03-14T10:57:39;19.40;64.00
44215;DHT22;29884;47.450;19.124;2023-03-14T11:00:11;19.30;63.80
44215;DHT22;29884;47.450;19.124;2023-03-14T11:03:10;19.40;63.90
44215;DHT22;29884;47.450;19.124;2023-03-14T11:05:45;19.40;64.60
44215;DHT22;29884;47.450;19.124;2023-03-14T11:08:15;19.60;64.20
44215;DHT22;29884;47.450;19.124;2023-03-14T11:10:46;19.70;64.50
44215;DHT22;29884;47.450;19.124;2023-03-14T11:13:26;19.90;65.10
44215;DHT22;29884;47.450;19.124;2023-03-14T11:19:16;20.40;59.70
44215;DHT22;29884;47.450;19.124;2023-03-14T11:22:05;20.50;59.10
44215;DHT22;29884;47.450;19.124;2023-03-14T11:27:11;20.40;59.20
44215;DHT22;29884;47.450;19.124;2023-03-14T11:30:04;20.30;58.40
44215;DHT22;29884;47.450;19.124;2023-03-14T11:35:39;20.30;58.90
44215;DHT22;29884;47.450;19.124;2023-03-14T11:38:28;20.30;58.70
44215;DHT22;29884;47.450;19.124;2023-03-14T11:40:57;20.10;58.80
44215;DHT22;29884;47.450;19.124;2023-03-14T11:43:33;20.00;59.40
44215;DHT22;29884;47.450;19.124;2023-03-14T11:46:11;20.00;59.50
44215;DHT22;29884;47.450;19.124;2023-03-14T11:49:03;19.80;59.90
44215;DHT22;29884;47.450;19.124;2023-03-14T11:51:35;19.80;59.50
44215;DHT22;29884;47.450;19.124;2023-03-14T11:54:14;19.80;60.10
44215;DHT22;29884;47.450;19.124;2023-03-14T11:57:03;19.80;60.10
44215;DHT22;29884;47.450;19.124;2023-03-14T12:02:51;20.20;59.50
44215;DHT22;29884;47.450;19.124;2023-03-14T12:10:39;21.00;58.70
44215;DHT22;29884;47.450;19.124;2023-03-14T12:13:11;21.00;58.80
44215;DHT22;29884;47.450;19.124;2023-03-14T12:15:43;20.90;58.10
44215;DHT22;29884;47.450;19.124;2023-03-14T12:18:27;20.80;58.40
44215;DHT22;29884;47.450;19.124;2023-03-14T12:20:56;20.40;58.00
44215;DHT22;29884;47.450;19.124;2023-03-14T12:23:23;20.40;58.00
44215;DHT22;29884;47.450;19.124;2023-03-14T12:37:05;20.10;58.50
44215;DHT22;29884;47.450;19.124;2023-03-14T12:39:43;20.10;58.40
44215;DHT22;29884;47.450;19.124;2023-03-14T12:42:13;20.10;58.00
44215;DHT22;29884;47.450;19.124;2023-03-14T12:44:51;20.10;58.30
44215;DHT22;29884;47.450;19.124;2023-03-14T12:49:49;20.00;57.90
44215;DHT22;29884;47.450;19.124;2023-03-14T12:52:29;19.90;58.90
44215;DHT22;29884;47.450;19.124;2023-03-14T12:55:25;19.90;58.20
44215;DHT22;29884;47.450;19.124;2023-03-14T13:00:41;19.90;57.10
44215;DHT22;29884;47.450;19.124;2023-03-14T13:03:18;19.80;57.20
44215;DHT22;29884;47.450;19.124;2023-03-14T13:05:56;19.80;57.60
44215;DHT22;29884;47.450;19.124;2023-03-14T13:08:44;19.70;57.20
44215;DHT22;29884;47.450;19.124;2023-03-14T13:11:19;19.70;57.10
44215;DHT22;29884;47.450;19.124;2023-03-14T13:13:52;19.60;57.10
44215;DHT22;29884;47.450;19.124;2023-03-14T13:16:22;19.60;56.60
44215;DHT22;29884;47.450;19.124;2023-03-14T13:19:11;19.50;56.70
44215;DHT22;29884;47.450;19.124;2023-03-14T13:21:41;19.40;56.50
44215;DHT22;29884;47.450;19.124;2023-03-14T13:24:20;19.40;56.70
44215;DHT22;29884;47.450;19.124;2023-03-14T13:26:46;19.40;57.10
44215;DHT22;29884;47.450;19.124;2023-03-14T13:29:29;19.40;56.80
44215;DHT22;29884;47.450;19.124;2023-03-14T13:31:59;19.30;57.20
44215;DHT22;29884;47.450;19.124;2023-03-14T13:34:34;19.20;57.40
44215;DHT22;29884;47.450;19.124;2023-03-14T13:37:01;19.10;61.50
44215;DHT22;29884;47.450;19.124;2023-03-14T13:39:28;19.00;63.00
44215;DHT22;29884;47.450;19.124;2023-03-14T13:42:03;18.80;62.40
44215;DHT22;29884;47.450;19.124;2023-03-14T13:44:36;18.80;61.00
44215;DHT22;29884;47.450;19.124;2023-03-14T13:47:04;18.80;61.30
44215;DHT22;29884;47.450;19.124;2023-03-14T13:49:32;18.80;61.00
44215;DHT22;29884;47.450;19.124;2023-03-14T13:52:01;18.80;61.50
44215;DHT22;29884;47.450;19.124;2023-03-14T13:54:27;18.80;61.40
44215;DHT22;29884;47.450;19.124;2023-03-14T13:57:04;18.80;61.00
44215;DHT22;29884;47.450;19.124;2023-03-14T13:59:32;18.80;62.00
44215;DHT22;29884;47.450;19.124;2023-03-14T14:02:00;18.80;61.50
44215;DHT22;29884;47.450;19.124;2023-03-14T14:04:29;18.80;62.10
44215;DHT22;29884;47.450;19.124;2023-03-14T14:07:09;18.80;62.60
44215;DHT22;29884;47.450;19.124;2023-03-14T14:09:42;18.80;63.00
44215;DHT22;29884;47.450;19.124;2023-03-14T14:12:32;18.80;62.30
44215;DHT22;29884;47.450;19.124;2023-03-14T14:15:07;18.80;62.20
44215;DHT22;29884;47.450;19.124;2023-03-14T14:20:06;18.90;62.50
44215;DHT22;29884;47.450;19.124;2023-03-14T14:22:34;18.90;62.10
44215;DHT22;29884;47.450;19.124;2023-03-14T14:25:00;18.90;62.10
44215;DHT22;29884;47.450;19.124;2023-03-14T14:27:36;18.90;61.50
44215;DHT22;29884;47.450;19.124;2023-03-14T14:30:06;18.90;61.80
44215;DHT22;29884;47.450;19.124;2023-03-14T14:32:50;19.00;62.20
44215;DHT22;29884;47.450;19.124;2023-03-14T14:35:33;19.00;61.90
44215;DHT22;29884;47.450;19.124;2023-03-14T14:37:59;18.90;62.20
44215;DHT22;29884;47.450;19.124;2023-03-14T14:40:27;18.80;62.30
44215;DHT22;29884;47.450;19.124;2023-03-14T14:42:54;18.80;62.70
44215;DHT22;29884;47.450;19.124;2023-03-14T14:45:24;18.70;63.00
44215;DHT22;29884;47.450;19.124;2023-03-14T14:53:40;18.50;63.10
44215;DHT22;29884;47.450;19.124;2023-03-14T14:56:08;18.40;62.70
44215;DHT22;29884;47.450;19.124;2023-03-14T14:58:43;18.30;62.90
44215;DHT22;29884;47.450;19.124;2023-03-14T15:01:18;18.30;63.10
44215;DHT22;29884;47.450;19.124;2023-03-14T15:03:47;18.20;63.70
44215;DHT22;29884;47.450;19.124;2023-03-14T15:06:16;18.20;63.30
44215;DHT22;29884;47.450;19.124;2023-03-14T15:08:46;18.20;63.30
44215;DHT22;29884;47.450;19.124;2023-03-14T15:11:23;18.10;64.00
44215;DHT22;29884;47.450;19.124;2023-03-14T15:13:50;18.00;63.70
44215;DHT22;29884;47.450;19.124;2023-03-14T15:16:21;18.00;64.30
44215;DHT22;29884;47.450;19.124;2023-03-14T15:18:54;17.90;64.40
44215;DHT22;29884;47.450;19.124;2023-03-14T15:21:24;17.80;65.10
44215;DHT22;29884;47.450;19.124;2023-03-14T15:23:50;17.80;65.60
44215;DHT22;29884;47.450;19.124;2023-03-14T15:26:19;17.70;65.60
44215;DHT22;29884;47.450;19.124;2023-03-14T15:28:45;17.60;65.40
44215;DHT22;29884;47.450;19.124;2023-03-14T15:31:13;17.60;65.30
44215;DHT22;29884;47.450;19.124;2023-03-14T15:33:40;17.60;66.70
44215;DHT22;29884;47.450;19.124;2023-03-14T15:39:01;17.50;66.10
44215;DHT22;29884;47.450;19.124;2023-03-14T15:41:27;17.40;66.40
44215;DHT22;29884;47.450;19.124;2023-03-14T15:43:54;17.30;66.80
44215;DHT22;29884;47.450;19.124;2023-03-14T15:46:20;17.30;68.10
44215;DHT22;29884;47.450;19.124;2023-03-14T15:48:48;17.20;67.40
44215;DHT22;29884;47.450;19.124;2023-03-14T15:51:14;17.20;67.40
44215;DHT22;29884;47.450;19.124;2023-03-14T15:53:40;17.10;67.90
44215;DHT22;29884;47.450;19.124;2023-03-14T15:56:09;17.00;68.10
44215;DHT22;29884;47.450;19.124;2023-03-14T15:58:36;17.00;68.90
44215;DHT22;29884;47.450;19.124;2023-03-14T16:01:06;16.90;68.70
44215;DHT22;29884;47.450;19.124;2023-03-14T16:03:35;16.90;68.90
44215;DHT22;29884;47.450;19.124;2023-03-14T16:06:01;16.90;69.00
44215;DHT22;29884;47.450;19.124;2023-03-14T16:08:27;16.80;74.50
44215;DHT22;29884;47.450;19.124;2023-03-14T16:10:56;16.60;79.60
44215;DHT22;29884;47.450;19.124;2023-03-14T16:13:23;16.40;84.40
44215;DHT22;29884;47.450;19.124;2023-03-14T16:16:00;16.10;89.00
44215;DHT22;29884;47.450;19.124;2023-03-14T16:18:32;15.90;91.80
44215;DHT22;29884;47.450;19.124;2023-03-14T16:21:05;15.70;94.10
44215;DHT22;29884;47.450;19.124;2023-03-14T16:23:31;15.60;95.50
44215;DHT22;29884;47.450;19.124;2023-03-14T16:25:57;15.50;96.90
44215;DHT22;29884;47.450;19.124;2023-03-14T16:28:24;15.30;97.60
44215;DHT22;29884;47.450;19.124;2023-03-14T16:30:50;15.20;98.30
44215;DHT22;29884;47.450;19.124;2023-03-14T16:33:16;15.10;98.70
44215;DHT22;29884;47.450;19.124;2023-03-14T16:35:55;15.10;99.40